createdAt,value
2022-09-05T00:02:02.250Z,100647.97
2022-09-05T00:04:54.191Z,100648.72
2022-09-05T00:07:59.147Z,100645.53
2022-09-05T00:11:40.587Z,100653.38
2022-09-05T00:13:42.510Z,100651.78
2022-09-05T00:16:48.868Z,100658.47
2022-09-05T00:24:25.258Z,100655.75
2022-09-05T00:24:34.978Z,100650.44
2022-09-05T00:26:24.799Z,100648.84
2022-09-05T00:29:13.561Z,100650.94
2022-09-05T00:31:57.427Z,100654.56
2022-09-05T00:35:09.550Z,100656.28
2022-09-05T00:37:50.405Z,100655.63
2022-09-05T00:40:26.051Z,100659.72
2022-09-05T00:43:15.929Z,100667.53
2022-09-05T00:45:54.060Z,100667.97
2022-09-05T00:48:37.475Z,100665.75
2022-09-05T00:51:11.968Z,100675.19
2022-09-05T00:54:02.415Z,100670.91
2022-09-05T00:57:04.313Z,100669.19
2022-09-05T00:59:58.606Z,100681.06
2022-09-05T01:03:01.689Z,100679.56
2022-09-05T01:05:57.452Z,100669.88
2022-09-05T01:08:56.095Z,100664.53
2022-09-05T01:12:11.901Z,100661.84
2022-09-05T01:15:14.519Z,100675.31
2022-09-05T01:18:07.985Z,100678.44
2022-09-05T01:20:42.570Z,100688.56
2022-09-05T01:23:47.184Z,100679.44
2022-09-05T01:26:39.000Z,100671.91
2022-09-05T01:29:19.849Z,100675.81
2022-09-05T01:31:59.474Z,100680.47
2022-09-05T01:34:56.336Z,100681.88
2022-09-05T01:37:39.740Z,100685.31
2022-09-05T01:40:41.664Z,100678.78
2022-09-05T01:43:26.294Z,100683.75
2022-09-05T01:46:30.444Z,100686.31
2022-09-05T01:49:25.417Z,100682.03
2022-09-05T01:52:04.029Z,100682.03
2022-09-05T01:54:46.820Z,100682.22
2022-09-05T01:57:43.299Z,100678.44
2022-09-05T02:00:10.527Z,100686.84
2022-09-05T02:02:50.735Z,100689.72
2022-09-05T02:06:00.440Z,100677.53
2022-09-05T02:09:19.051Z,100667.44
2022-09-05T02:12:04.352Z,100674.66
2022-09-05T02:14:44.857Z,100685.97
2022-09-05T02:17:50.681Z,100682.16
2022-09-05T02:20:24.981Z,100675.38
2022-09-05T02:23:37.553Z,100687.44
2022-09-05T02:26:07.433Z,100675.66
2022-09-05T02:28:54.454Z,100688.03
2022-09-05T02:31:48.856Z,100694.22
2022-09-05T02:34:33.630Z,100695.25
2022-09-05T02:37:43.845Z,100696.75
2022-09-05T02:45:09.270Z,100693.50
2022-09-05T02:45:15.180Z,100693.16
2022-09-05T02:47:23.023Z,100691.63
2022-09-05T02:52:50.473Z,100696.44
2022-09-05T02:57:32.762Z,100693.81
2022-09-05T02:57:35.416Z,100695.75
